Time;durP1;ratioP1;P1;durP2;ratioP2;P2;SDS_P1;SDS_P2;PMS_P1;PMS_P2;Temp;Humidity;BMP_temperature;BMP_pressure;BME280_temperature;BME280_humidity;BME280_pressure;Samples;Min_cycle;Max_cycle;Signal;HPM_P1;HPM_P2
2021/12/05 00:19:50;;;;;;;1.00;1.00;;;4.10;99.90;;;;;;5038201;28;20099;-67
2021/12/05 00:22:26;;;;;;;1.10;1.10;;;4.10;99.90;;;;;;5041068;28;20029;-68
2021/12/05 00:24:56;;;;;;;0.85;0.85;;;4.00;99.90;;;;;;5020392;28;20020;-68
2021/12/05 00:27:29;;;;;;;1.20;1.20;;;4.00;99.90;;;;;;5043861;28;20037;-68
2021/12/05 00:43:46;;;;;;;1.20;1.10;;;3.80;99.90;;;;;;5044581;28;20025;-68
2021/12/05 01:08:12;;;;;;;0.95;0.90;;;3.70;99.90;;;;;;5041065;28;20048;-68
2021/12/05 01:15:30;;;;;;;3.53;1.23;;;3.70;99.90;;;;;;5037910;28;20033;-67
2021/12/05 01:18:03;;;;;;;0.90;0.90;;;3.70;99.90;;;;;;5022823;28;20413;-68
2021/12/05 01:20:39;;;;;;;1.00;0.90;;;3.70;99.90;;;;;;5034241;28;20537;-68
2021/12/05 01:23:18;;;;;;;1.40;1.00;;;3.70;99.90;;;;;;5038200;28;20060;-68
2021/12/05 01:26:01;;;;;;;1.38;0.90;;;3.70;99.90;;;;;;5045680;28;20125;-67
2021/12/05 01:50:31;;;;;;;0.90;0.90;;;3.20;99.90;;;;;;5043615;28;20059;-67
2021/12/05 02:12:08;;;;;;;1.95;1.00;;;3.30;99.90;;;;;;5045051;28;20044;-69
2021/12/05 02:41:28;;;;;;;0.95;0.95;;;3.30;99.90;;;;;;5049925;28;20056;-68
2021/12/05 02:44:04;;;;;;;1.63;1.20;;;3.20;99.90;;;;;;5039038;28;20095;-68
2021/12/05 02:46:30;;;;;;;0.90;0.90;;;3.20;99.90;;;;;;5050715;28;20052;-68
2021/12/05 02:49:02;;;;;;;1.55;0.90;;;3.20;99.90;;;;;;5027500;28;20571;-68
2021/12/05 02:51:29;;;;;;;2.70;0.77;;;3.10;99.90;;;;;;5031985;28;20087;-68
2021/12/05 02:56:30;;;;;;;0.82;0.80;;;3.10;99.90;;;;;;5050440;28;20040;-68
2021/12/05 02:58:57;;;;;;;4.57;0.90;;;3.00;99.90;;;;;;5027440;28;20032;-68
2021/12/05 03:03:56;;;;;;;2.17;0.70;;;3.00;99.90;;;;;;5038913;28;20033;-67
2021/12/05 03:06:26;;;;;;;1.55;1.10;;;2.90;99.90;;;;;;5044520;28;20028;-67
2021/12/05 03:08:59;;;;;;;3.58;1.08;;;2.90;99.90;;;;;;5048341;28;20040;-67
2021/12/05 03:11:28;;;;;;;0.85;0.60;;;2.80;99.90;;;;;;5047234;28;20121;-67
2021/12/05 03:13:53;;;;;;;1.80;0.80;;;2.90;99.90;;;;;;5039666;28;20123;-67
2021/12/05 03:16:20;;;;;;;0.70;0.70;;;2.80;99.90;;;;;;5042355;28;20047;-66
2021/12/05 03:18:46;;;;;;;0.77;0.77;;;2.80;99.90;;;;;;5046665;28;20494;-67
2021/12/05 03:21:13;;;;;;;1.00;0.80;;;2.80;99.90;;;;;;5047584;28;20180;-67
2021/12/05 03:23:43;;;;;;;2.55;0.90;;;2.70;99.90;;;;;;5023351;28;20808;-67
2021/12/05 03:26:12;;;;;;;2.05;0.90;;;2.70;99.90;;;;;;5044414;28;20113;-67
2021/12/05 03:28:38;;;;;;;1.33;0.98;;;2.70;99.90;;;;;;5048684;28;20512;-67
2021/12/05 03:31:06;;;;;;;1.00;0.88;;;2.60;99.90;;;;;;5023326;28;20033;-67
2021/12/05 03:33:32;;;;;;;0.77;0.77;;;2.70;99.90;;;;;;5041047;28;20032;-67
2021/12/05 03:35:58;;;;;;;2.38;1.13;;;2.70;99.90;;;;;;5022551;28;20032;-67
2021/12/05 03:38:24;;;;;;;1.30;1.17;;;2.70;99.90;;;;;;5043431;28;20101;-67
2021/12/05 03:40:50;;;;;;;0.88;0.88;;;2.70;99.90;;;;;;5037175;28;20116;-67
2021/12/05 03:43:18;;;;;;;0.80;0.80;;;2.70;99.90;;;;;;5039152;28;21056;-67
2021/12/05 03:45:50;;;;;;;0.80;0.80;;;2.70;99.90;;;;;;5044717;28;20025;-67
2021/12/05 03:48:17;;;;;;;1.67;0.80;;;2.70;99.90;;;;;;5042624;28;20055;-67
2021/12/05 03:50:44;;;;;;;1.33;1.05;;;2.70;99.90;;;;;;5045310;28;20044;-67
2021/12/05 03:53:10;;;;;;;0.73;0.70;;;2.70;99.90;;;;;;5044664;28;20489;-67
2021/12/05 03:55:39;;;;;;;1.02;1.00;;;2.70;99.90;;;;;;5045922;28;20104;-67
2021/12/05 03:58:05;;;;;;;0.80;0.80;;;2.70;99.90;;;;;;5047326;28;20104;-68
2021/12/05 04:00:35;;;;;;;0.80;0.80;;;2.60;99.90;;;;;;5041540;28;20044;-67
2021/12/05 04:03:04;;;;;;;4.03;1.38;;;2.60;99.90;;;;;;5045481;28;20506;-67
2021/12/05 04:05:34;;;;;;;2.08;0.80;;;2.60;99.90;;;;;;5045249;28;20090;-67
2021/12/05 04:08:02;;;;;;;3.70;1.35;;;2.70;99.90;;;;;;5044694;28;20551;-67
2021/12/05 04:10:28;;;;;;;4.33;1.17;;;2.60;99.90;;;;;;5026356;28;20033;-67
2021/12/05 04:12:55;;;;;;;1.15;1.00;;;2.60;99.90;;;;;;5041444;28;20282;-67
2021/12/05 04:15:21;;;;;;;1.48;1.00;;;2.60;99.90;;;;;;5034134;28;20029;-68
2021/12/05 04:17:47;;;;;;;0.82;0.82;;;2.60;99.90;;;;;;5043877;28;20040;-67
2021/12/05 04:20:14;;;;;;;1.10;1.02;;;2.60;99.90;;;;;;5043545;28;20162;-67
2021/12/05 04:22:41;;;;;;;1.00;1.00;;;2.60;99.90;;;;;;5041275;28;20489;-67
2021/12/05 04:25:10;;;;;;;1.80;1.10;;;2.60;99.90;;;;;;5039212;28;20386;-67
2021/12/05 04:27:38;;;;;;;1.15;1.05;;;2.60;99.90;;;;;;5045489;28;20108;-67
2021/12/05 04:30:06;;;;;;;2.57;1.40;;;2.50;99.90;;;;;;5029206;28;20037;-67
2021/12/05 04:32:32;;;;;;;1.00;1.00;;;2.60;99.90;;;;;;5041251;28;20295;-67
2021/12/05 04:34:58;;;;;;;1.27;1.15;;;2.60;99.90;;;;;;5039020;28;20037;-67
2021/12/05 04:37:24;;;;;;;0.95;0.95;;;2.60;99.90;;;;;;5047812;28;20029;-67
2021/12/05 04:39:51;;;;;;;1.75;1.30;;;2.60;99.90;;;;;;5023757;28;20029;-67
2021/12/05 04:42:16;;;;;;;1.20;1.20;;;2.60;99.90;;;;;;5045836;28;20025;-67
2021/12/05 04:44:42;;;;;;;1.42;1.20;;;2.60;99.90;;;;;;5036903;28;20040;-67
2021/12/05 04:47:09;;;;;;;2.28;1.23;;;2.60;99.90;;;;;;5044436;28;20525;-67
2021/12/05 04:49:39;;;;;;;4.32;1.52;;;2.60;99.90;;;;;;5043179;28;20767;-68
2021/12/05 04:52:05;;;;;;;1.45;1.35;;;2.60;99.90;;;;;;5038304;28;20032;-67
2021/12/05 04:54:32;;;;;;;1.20;1.20;;;2.60;99.90;;;;;;5022937;28;21263;-67
2021/12/05 04:56:58;;;;;;;1.33;1.10;;;2.60;99.90;;;;;;5044788;28;20033;-67
2021/12/05 04:59:26;;;;;;;1.23;1.05;;;2.60;99.90;;;;;;5026584;28;20029;-67
2021/12/05 05:01:54;;;;;;;1.10;1.10;;;2.50;99.90;;;;;;5020045;28;20494;-67
2021/12/05 05:04:27;;;;;;;2.25;1.73;;;2.60;99.90;;;;;;5035474;28;20036;-67
2021/12/05 05:07:00;;;;;;;1.35;1.27;;;2.60;99.90;;;;;;5044499;28;20029;-68
2021/12/05 05:09:26;;;;;;;2.25;1.40;;;2.60;99.90;;;;;;5029291;28;20033;-66
2021/12/05 05:11:52;;;;;;;5.80;1.40;;;2.50;99.90;;;;;;5040081;28;20107;-67
2021/12/05 05:14:18;;;;;;;1.80;1.40;;;2.60;99.90;;;;;;5043987;28;20389;-67
2021/12/05 05:16:45;;;;;;;1.23;1.05;;;2.50;99.90;;;;;;5043336;28;20033;-67
2021/12/05 05:19:13;;;;;;;4.35;1.50;;;2.60;99.90;;;;;;5042531;28;20405;-67
2021/12/05 05:21:46;;;;;;;1.40;1.20;;;2.60;99.90;;;;;;5048508;28;20025;-67
2021/12/05 05:50:16;;;;;;;1.90;1.35;;;2.70;99.90;;;;;;5032993;28;20131;-68
2021/12/05 05:52:42;;;;;;;2.15;1.25;;;2.70;99.90;;;;;;5035695;28;20041;-69
2021/12/05 05:55:09;;;;;;;1.30;1.20;;;2.60;99.90;;;;;;5033190;28;20128;-68
2021/12/05 05:57:56;;;;;;;2.42;1.73;;;2.60;99.90;;;;;;5031292;28;21772;-68
2021/12/05 06:00:34;;;;;;;1.17;1.10;;;2.60;99.90;;;;;;5026131;28;20025;-68
2021/12/05 06:03:21;;;;;;;1.70;1.60;;;2.60;99.90;;;;;;5033224;28;20025;-68
2021/12/05 06:06:10;;;;;;;1.02;1.02;;;2.60;99.90;;;;;;5030959;28;20482;-68
2021/12/05 06:08:37;;;;;;;2.20;1.60;;;2.60;99.90;;;;;;5035134;28;20545;-68
2021/12/05 06:11:08;;;;;;;1.55;1.45;;;2.50;99.90;;;;;;5034953;28;20044;-68
2021/12/05 06:13:36;;;;;;;2.35;1.10;;;2.50;99.90;;;;;;5034206;28;20029;-69
2021/12/05 06:16:02;;;;;;;2.73;1.53;;;2.50;99.90;;;;;;5030637;28;20044;-68
2021/12/05 06:18:28;;;;;;;3.88;1.30;;;2.40;99.90;;;;;;5032718;28;20048;-68
2021/12/05 06:20:55;;;;;;;1.25;1.17;;;2.40;99.90;;;;;;5014132;28;20044;-68
2021/12/05 06:23:21;;;;;;;1.33;1.20;;;2.40;99.90;;;;;;5035299;28;20029;-69
2021/12/05 06:25:50;;;;;;;2.63;1.60;;;2.40;99.90;;;;;;5034042;28;20060;-69
2021/12/05 06:28:16;;;;;;;;;;;2.40;99.90;;;;;;5030530;28;20033;-69
2021/12/05 06:30:53;;;;;;;1.10;1.10;;;2.40;99.90;;;;;;5033492;28;20420;-68
2021/12/05 06:41:35;;;;;;;1.95;1.20;;;2.30;99.90;;;;;;5033707;28;20029;-68
2021/12/05 06:47:04;;;;;;;4.03;3.08;;;2.30;99.90;;;;;;4995159;28;20411;-68
2021/12/05 06:49:30;;;;;;;3.13;2.03;;;2.30;99.90;;;;;;5028542;28;20083;-69
2021/12/05 06:51:56;;;;;;;3.90;2.17;;;2.30;99.90;;;;;;5041631;28;20043;-69
2021/12/05 06:54:22;;;;;;;3.40;1.90;;;2.30;99.90;;;;;;5019190;28;20033;-68
2021/12/05 06:56:48;;;;;;;3.30;2.08;;;2.30;99.90;;;;;;5038781;28;20036;-69
2021/12/05 06:59:14;;;;;;;2.03;1.92;;;2.30;99.90;;;;;;5020270;28;20025;-68
2021/12/05 07:01:40;;;;;;;2.72;2.22;;;2.30;99.90;;;;;;5022458;28;20029;-69
2021/12/05 07:04:16;;;;;;;3.30;1.90;;;2.30;99.90;;;;;;5022214;28;20082;-68
2021/12/05 07:06:42;;;;;;;4.07;2.13;;;2.30;99.90;;;;;;5016778;28;20067;-69
2021/12/05 07:09:10;;;;;;;2.90;1.90;;;2.30;99.90;;;;;;5035444;28;20039;-68
2021/12/05 07:14:34;;;;;;;;;;;2.30;99.90;;;;;;5039117;28;20513;-69
2021/12/05 07:17:07;;;;;;;2.53;1.08;;;2.30;99.90;;;;;;5040161;28;20066;-68
2021/12/05 07:19:49;;;;;;;7.60;1.67;;;2.30;99.90;;;;;;5021548;28;20067;-69
2021/12/05 07:22:25;;;;;;;2.60;1.60;;;2.30;99.90;;;;;;5020859;28;20065;-68
2021/12/05 07:25:02;;;;;;;3.70;2.40;;;2.40;99.90;;;;;;5042488;28;20036;-68
2021/12/05 07:40:58;;;;;;;3.50;1.70;;;2.30;99.90;;;;;;5039700;28;20055;-71
2021/12/05 07:43:24;;;;;;;3.85;1.35;;;2.30;99.90;;;;;;5021609;28;20039;-68
2021/12/05 07:45:56;;;;;;;2.42;1.80;;;2.30;99.90;;;;;;5035683;28;20025;-69
2021/12/05 07:48:28;;;;;;;2.63;2.20;;;2.30;99.90;;;;;;5035932;28;20032;-69
2021/12/05 07:51:32;;;;;;;10.02;3.20;;;2.30;99.90;;;;;;5021295;28;21641;-68
2021/12/05 08:15:30;;;;;;;5.00;1.65;;;2.30;99.90;;;;;;5039029;28;20048;-66
2021/12/05 08:17:58;;;;;;;2.22;1.70;;;2.30;99.90;;;;;;5037435;28;20040;-67
2021/12/05 08:20:37;;;;;;;4.13;1.90;;;2.30;99.90;;;;;;5037451;28;20025;-66
2021/12/05 08:23:04;;;;;;;2.30;1.95;;;2.30;99.90;;;;;;5022893;28;20033;-67
2021/12/05 08:25:34;;;;;;;1.48;1.35;;;2.40;99.90;;;;;;5037691;28;20060;-67
2021/12/05 08:28:31;;;;;;;2.72;1.50;;;2.40;99.90;;;;;;5036891;28;20735;-67
2021/12/05 08:31:58;;;;;;;6.13;2.50;;;2.40;99.90;;;;;;5033642;28;20033;-68
2021/12/05 08:34:19;;;;;;;2.28;2.10;;;2.50;99.90;;;;;;5028803;28;20135;-68
2021/12/05 09:21:03;;;;;;;1.55;1.45;;;2.80;99.90;;;;;;5046982;28;20757;-67
2021/12/05 10:11:19;;;;;;;1.73;1.23;;;3.30;99.90;;;;;;5042985;28;21013;-67
2021/12/05 10:16:24;;;;;;;3.95;1.80;;;3.30;99.90;;;;;;5044488;28;20035;-68
2021/12/05 10:19:22;;;;;;;2.17;1.40;;;3.30;99.90;;;;;;5023612;28;20063;-68
2021/12/05 10:38:39;;;;;;;1.50;1.15;;;3.50;99.90;;;;;;5003893;28;20026;-68
2021/12/05 10:43:39;;;;;;;2.70;1.30;;;3.50;99.90;;;;;;5003667;28;20072;-69
2021/12/05 10:46:14;;;;;;;3.05;1.60;;;3.60;99.90;;;;;;5008228;28;20165;-68
2021/12/05 10:48:50;;;;;;;2.20;1.67;;;3.60;99.90;;;;;;4991351;28;20022;-68
2021/12/05 10:51:27;;;;;;;1.27;1.27;;;3.60;99.90;;;;;;4977064;28;20033;-68
2021/12/05 10:53:56;;;;;;;2.00;1.80;;;3.60;99.90;;;;;;5003617;28;20030;-69
2021/12/05 10:56:37;;;;;;;1.67;1.30;;;3.60;99.90;;;;;;5008154;28;20073;-68
2021/12/05 10:59:08;;;;;;;1.45;1.35;;;3.60;99.90;;;;;;4991399;23;20062;-82
2021/12/05 11:01:49;;;;;;;1.27;1.20;;;3.60;99.90;;;;;;4966504;28;20049;-83
2021/12/05 11:04:26;;;;;;;2.60;1.70;;;3.70;99.90;;;;;;4969629;28;20030;-84
2021/12/05 11:06:54;;;;;;;1.45;1.35;;;3.70;99.90;;;;;;4969748;28;20042;-84
2021/12/05 11:09:32;;;;;;;4.10;1.40;;;3.70;99.90;;;;;;4965036;28;20565;-83
2021/12/05 11:11:59;;;;;;;1.10;1.10;;;3.70;99.90;;;;;;4969652;28;20125;-84
2021/12/05 11:14:28;;;;;;;1.38;1.33;;;3.70;99.90;;;;;;4968151;28;20066;-83
2021/12/05 11:17:05;;;;;;;1.50;1.40;;;3.80;99.90;;;;;;4968815;28;20062;-84
2021/12/05 11:19:40;;;;;;;1.55;1.45;;;3.80;99.90;;;;;;4972686;28;20029;-84
2021/12/05 11:22:15;;;;;;;1.40;1.40;;;3.80;99.90;;;;;;4982981;28;20031;-84
2021/12/05 11:24:53;;;;;;;2.75;1.50;;;3.80;99.90;;;;;;4968012;28;20027;-84
2021/12/05 11:27:32;;;;;;;1.58;1.48;;;3.80;99.90;;;;;;4967924;28;20045;-84
2021/12/05 11:30:13;;;;;;;2.90;1.27;;;3.90;99.90;;;;;;4962320;28;20045;-84
2021/12/05 11:33:01;;;;;;;1.30;1.20;;;3.80;99.90;;;;;;4969420;28;20042;-85
2021/12/05 11:35:37;;;;;;;2.75;1.50;;;3.90;99.90;;;;;;4969276;28;20039;-84
2021/12/05 11:38:15;;;;;;;4.32;1.73;;;3.90;99.90;;;;;;4968550;28;20238;-84
2021/12/05 11:40:52;;;;;;;1.65;1.33;;;3.90;99.90;;;;;;4965786;28;20038;-84
2021/12/05 11:43:26;;;;;;;2.08;1.35;;;3.90;99.90;;;;;;4972061;28;20423;-83
2021/12/05 11:46:00;;;;;;;4.47;1.88;;;4.00;99.90;;;;;;4968811;28;20023;-83
2021/12/05 11:48:38;;;;;;;1.33;1.23;;;3.90;99.90;;;;;;4986173;28;20026;-83
2021/12/05 11:51:17;;;;;;;2.08;1.58;;;4.00;99.90;;;;;;4966726;28;20046;-83
2021/12/05 11:53:46;;;;;;;1.60;1.33;;;4.00;99.90;;;;;;4973130;28;20022;-83
2021/12/05 11:56:36;;;;;;;2.33;1.50;;;3.90;99.90;;;;;;4967771;28;20035;-83
2021/12/05 11:59:10;;;;;;;1.98;1.17;;;4.00;99.90;;;;;;4975518;28;20100;-83
2021/12/05 12:01:41;;;;;;;4.95;1.52;;;4.00;99.90;;;;;;4990568;28;20475;-83
2021/12/05 12:04:09;;;;;;;1.80;1.20;;;4.00;99.90;;;;;;4975514;28;20416;-83
2021/12/05 12:06:35;;;;;;;1.98;1.73;;;4.10;99.90;;;;;;4976001;28;20101;-83
2021/12/05 12:09:03;;;;;;;1.77;1.40;;;4.10;99.90;;;;;;4976137;28;20043;-83
2021/12/05 12:11:29;;;;;;;1.73;1.60;;;4.20;99.90;;;;;;4973783;28;20030;-83
2021/12/05 12:13:55;;;;;;;3.05;1.35;;;4.20;99.90;;;;;;4993044;28;20407;-83
2021/12/05 12:16:22;;;;;;;2.65;1.17;;;4.10;99.90;;;;;;4975913;28;20037;-83
2021/12/05 12:18:49;;;;;;;4.32;1.05;;;4.20;99.90;;;;;;4973417;28;20475;-84
2021/12/05 12:21:21;;;;;;;1.83;1.40;;;4.10;99.90;;;;;;4970660;28;20110;-84
2021/12/05 12:23:53;;;;;;;1.77;1.50;;;4.20;99.90;;;;;;4969934;28;20068;-84
2021/12/05 12:26:19;;;;;;;2.72;1.27;;;4.20;99.90;;;;;;4971441;28;20569;-84
2021/12/05 12:28:45;;;;;;;2.40;1.35;;;4.20;99.90;;;;;;4974835;28;20124;-84
2021/12/05 12:31:22;;;;;;;1.30;1.20;;;4.20;99.90;;;;;;4971353;28;20571;-84
2021/12/05 12:33:58;;;;;;;1.38;1.05;;;4.20;99.90;;;;;;4993563;28;20034;-84
2021/12/05 12:36:48;;;;;;;2.17;1.38;;;4.20;99.90;;;;;;4979678;28;20038;-83
2021/12/05 12:39:21;;;;;;;1.08;1.00;;;4.20;99.90;;;;;;4975571;28;20064;-83
2021/12/05 12:42:18;;;;;;;2.30;1.33;;;4.20;99.90;;;;;;4971908;28;20130;-84
2021/12/05 12:44:56;;;;;;;1.30;1.20;;;4.10;99.90;;;;;;4968817;28;20080;-84
2021/12/05 12:47:42;;;;;;;2.65;2.35;;;4.20;99.90;;;;;;4975679;28;20045;-83
2021/12/05 12:50:29;;;;;;;2.80;1.60;;;4.20;99.90;;;;;;4973739;28;20043;-84
2021/12/05 12:53:27;;;;;;;3.78;1.20;;;4.20;99.90;;;;;;4970462;28;20092;-84
2021/12/05 12:56:05;;;;;;;3.55;1.10;;;4.20;99.90;;;;;;4988015;28;20038;-83
2021/12/05 12:58:50;;;;;;;1.05;1.00;;;4.20;99.90;;;;;;4974221;28;20033;-84
2021/12/05 13:12:34;;;;;;;1.63;1.52;;;4.30;99.90;;;;;;4995460;28;20401;-83
2021/12/05 13:15:06;;;;;;;1.30;1.00;;;4.30;99.90;;;;;;4973296;28;20023;-83
2021/12/05 13:17:42;;;;;;;2.53;1.50;;;4.30;99.90;;;;;;4983125;28;20090;-83
2021/12/05 13:20:13;;;;;;;1.92;1.25;;;4.30;99.90;;;;;;4991520;28;20026;-84
2021/12/05 13:23:05;;;;;;;1.48;1.38;;;4.30;99.90;;;;;;4973752;28;20025;-84
2021/12/05 13:25:34;;;;;;;1.23;1.23;;;4.30;99.90;;;;;;4971791;28;20034;-84
2021/12/05 13:28:30;;;;;;;1.45;1.02;;;4.30;99.90;;;;;;4990346;28;20498;-84
2021/12/05 13:30:57;;;;;;;1.55;1.15;;;4.30;99.90;;;;;;4967866;28;20043;-84
2021/12/05 13:33:33;;;;;;;0.90;0.90;;;4.30;99.90;;;;;;4972779;28;20028;-84
2021/12/05 13:36:28;;;;;;;1.48;1.33;;;4.30;99.90;;;;;;4970967;28;20444;-84
2021/12/05 13:38:55;;;;;;;1.42;1.30;;;4.30;99.90;;;;;;4979929;28;20035;-83
2021/12/05 13:41:20;;;;;;;2.58;1.00;;;4.30;99.90;;;;;;4976621;28;20480;-83
2021/12/05 13:43:58;;;;;;;1.85;1.60;;;4.30;99.90;;;;;;4987291;28;20046;-84
2021/12/05 13:46:39;;;;;;;4.20;1.33;;;4.30;99.90;;;;;;4996288;28;20022;-84
2021/12/05 13:49:33;;;;;;;3.05;1.15;;;4.30;99.90;;;;;;5000256;28;20082;-84
2021/12/05 13:52:29;;;;;;;2.05;1.00;;;4.30;99.90;;;;;;4997293;28;20034;-84
2021/12/05 13:55:35;;;;;;;4.60;1.30;;;4.30;99.90;;;;;;4979188;28;21202;-84
2021/12/05 13:58:46;;;;;;;1.40;1.15;;;4.30;99.90;;;;;;4972126;28;20124;-84
2021/12/05 14:01:18;;;;;;;1.92;1.30;;;4.30;99.90;;;;;;4980850;28;20050;-84
2021/12/05 14:03:47;;;;;;;1.20;1.10;;;4.30;99.90;;;;;;4954438;28;20545;-84
2021/12/05 14:06:42;;;;;;;2.47;1.35;;;4.30;99.90;;;;;;4975054;28;20038;-84
2021/12/05 14:09:14;;;;;;;4.65;1.25;;;4.30;99.90;;;;;;4969238;28;20042;-84
2021/12/05 14:11:51;;;;;;;2.60;1.40;;;4.30;99.90;;;;;;4957330;28;20754;-84
2021/12/05 14:14:23;;;;;;;2.35;1.20;;;4.40;99.90;;;;;;4969978;28;20152;-84
2021/12/05 14:16:51;;;;;;;1.40;1.00;;;4.40;99.90;;;;;;4968083;28;20039;-84
2021/12/05 14:19:20;;;;;;;2.88;1.38;;;4.40;99.90;;;;;;4955561;28;20279;-84
2021/12/05 14:21:49;;;;;;;2.50;1.48;;;4.40;99.90;;;;;;4959949;28;20119;-84
2021/12/05 14:24:18;;;;;;;1.77;1.17;;;4.40;99.90;;;;;;4958559;28;20035;-84
2021/12/05 14:26:50;;;;;;;5.18;1.35;;;4.40;99.90;;;;;;4955205;28;20037;-84
2021/12/05 14:29:23;;;;;;;2.05;1.33;;;4.30;99.90;;;;;;4957679;28;20081;-84
2021/12/05 14:32:00;;;;;;;1.15;1.15;;;4.40;99.90;;;;;;4970571;28;20127;-84
2021/12/05 14:34:28;;;;;;;1.38;1.10;;;4.40;99.90;;;;;;4958847;28;20145;-84
2021/12/05 14:37:04;;;;;;;3.03;1.25;;;4.40;99.90;;;;;;4975894;28;20446;-84
2021/12/05 14:39:33;;;;;;;1.55;1.38;;;4.40;99.90;;;;;;4960519;28;20037;-84
2021/12/05 14:42:09;;;;;;;1.08;1.08;;;4.40;99.90;;;;;;4970391;28;20061;-84
2021/12/05 14:44:37;;;;;;;1.38;1.27;;;4.40;99.90;;;;;;4972280;28;20035;-84
2021/12/05 14:47:10;;;;;;;3.33;1.50;;;4.40;99.90;;;;;;4959527;28;20030;-84
2021/12/05 14:49:39;;;;;;;3.38;1.40;;;4.40;99.90;;;;;;4980318;28;20384;-83
2021/12/05 14:52:09;;;;;;;1.30;1.30;;;4.40;99.90;;;;;;4957254;28;20450;-83
2021/12/05 14:54:37;;;;;;;2.85;1.90;;;4.40;99.90;;;;;;4959497;28;20053;-84
2021/12/05 14:57:24;;;;;;;3.38;1.30;;;4.40;99.90;;;;;;4957098;28;20033;-84
2021/12/05 14:59:58;;;;;;;3.55;1.60;;;4.40;99.90;;;;;;4954441;28;20043;-84
2021/12/05 15:02:25;;;;;;;3.20;1.60;;;4.50;99.90;;;;;;4968837;28;20045;-84
2021/12/05 15:04:52;;;;;;;1.85;1.33;;;4.50;99.90;;;;;;4952450;28;20085;-84
2021/12/05 15:07:20;;;;;;;1.53;1.43;;;4.50;99.90;;;;;;4971008;28;20127;-83
2021/12/05 15:09:50;;;;;;;1.38;1.27;;;4.40;99.90;;;;;;4956650;28;20692;-83
2021/12/05 15:12:20;;;;;;;5.25;2.22;;;4.40;99.90;;;;;;4951759;28;20030;-84
2021/12/05 15:14:49;;;;;;;2.45;1.60;;;4.40;99.90;;;;;;4958235;28;20045;-84
2021/12/05 15:17:21;;;;;;;2.03;1.60;;;4.40;99.90;;;;;;4970927;28;20026;-84
2021/12/05 15:19:51;;;;;;;5.65;1.67;;;4.50;99.90;;;;;;4951875;28;20106;-84
2021/12/05 15:22:18;;;;;;;5.78;2.03;;;4.50;99.90;;;;;;4959098;28;20035;-84
2021/12/05 15:24:51;;;;;;;1.40;1.30;;;4.50;99.90;;;;;;4955062;28;20026;-84
2021/12/05 15:27:19;;;;;;;2.55;1.60;;;4.50;99.90;;;;;;4957342;28;20067;-84
2021/12/05 15:29:54;;;;;;;7.30;2.00;;;4.60;99.90;;;;;;4957536;28;20053;-84
2021/12/05 15:32:25;;;;;;;1.55;1.35;;;4.50;99.90;;;;;;4972697;28;20046;-84
2021/12/05 15:34:53;;;;;;;2.28;2.00;;;4.40;99.90;;;;;;4961456;28;20860;-84
2021/12/05 15:37:21;;;;;;;4.65;1.42;;;4.40;99.90;;;;;;4968469;28;20043;-84
2021/12/05 15:39:50;;;;;;;2.88;1.33;;;4.40;99.90;;;;;;4957104;28;20089;-84
2021/12/05 15:42:21;;;;;;;1.45;1.38;;;4.40;99.90;;;;;;4970271;28;20027;-84
2021/12/05 15:44:49;;;;;;;2.40;1.60;;;4.40;99.90;;;;;;4958901;28;20031;-84
2021/12/05 15:47:19;;;;;;;1.85;1.65;;;4.40;99.90;;;;;;4976071;28;20136;-84
2021/12/05 15:49:56;;;;;;;2.05;1.83;;;4.30;99.90;;;;;;4966281;28;20061;-84
2021/12/05 15:52:26;;;;;;;1.90;1.50;;;4.30;99.90;;;;;;4961023;28;20038;-83
2021/12/05 15:54:52;;;;;;;2.90;1.73;;;4.30;99.90;;;;;;4971215;28;20038;-84
2021/12/05 15:57:29;;;;;;;1.50;1.40;;;4.30;99.90;;;;;;4957338;28;20118;-83
2021/12/05 15:59:56;;;;;;;2.35;1.63;;;4.30;99.90;;;;;;4968529;28;20061;-84
2021/12/05 16:02:22;;;;;;;4.20;2.00;;;4.30;99.90;;;;;;4955400;28;20045;-84
2021/12/05 16:04:49;;;;;;;5.72;2.78;;;4.20;99.90;;;;;;4956470;28;20042;-83
2021/12/05 16:07:17;;;;;;;4.40;1.70;;;4.20;99.90;;;;;;4969774;28;20387;-83
2021/12/05 16:09:44;;;;;;;5.10;1.98;;;4.20;99.90;;;;;;4955253;28;20057;-83
2021/12/05 16:12:12;;;;;;;2.75;1.63;;;4.10;99.90;;;;;;4953788;28;20035;-83
2021/12/05 16:14:44;;;;;;;1.90;1.60;;;4.10;99.90;;;;;;4971532;28;20030;-83
2021/12/05 16:17:29;;;;;;;1.63;1.50;;;4.20;99.90;;;;;;4950726;28;20046;-84
2021/12/05 16:20:15;;;;;;;3.13;2.38;;;4.10;99.90;;;;;;4974607;28;20030;-83
2021/12/05 16:23:39;;;;;;;3.85;1.67;;;4.10;99.90;;;;;;4954793;28;20387;-83
2021/12/05 16:26:19;;;;;;;2.38;2.00;;;4.10;99.90;;;;;;4936308;28;20053;-84
2021/12/05 16:28:58;;;;;;;3.92;2.60;;;3.90;99.90;;;;;;4953661;28;20081;-84
2021/12/05 16:31:37;;;;;;;3.92;2.85;;;3.80;99.90;;;;;;4951172;28;20125;-84
2021/12/05 16:34:05;;;;;;;;;;;3.80;99.90;;;;;;4950662;28;20570;-84
2021/12/05 16:36:36;;;;;;;;;;;3.90;99.90;;;;;;4951425;28;20079;-84
2021/12/05 16:39:12;;;;;;;2.22;2.03;;;3.90;99.90;;;;;;4949017;28;19910;-83
2021/12/05 16:41:47;;;;;;;3.85;2.53;;;3.80;99.90;;;;;;4954019;28;20150;-83
2021/12/05 16:44:20;;;;;;;2.60;2.38;;;3.80;99.90;;;;;;4953941;28;21099;-83
2021/12/05 16:46:52;;;;;;;2.67;2.03;;;3.90;99.90;;;;;;4958214;28;20026;-83
2021/12/05 16:49:24;;;;;;;3.60;2.40;;;3.90;99.90;;;;;;4957129;28;20039;-84
2021/12/05 16:51:51;;;;;;;4.07;2.28;;;3.90;99.90;;;;;;4957036;28;20448;-84
2021/12/05 16:54:32;;;;;;;4.80;3.10;;;3.80;99.90;;;;;;4956803;28;20750;-83
2021/12/05 16:57:13;;;;;;;4.57;2.38;;;3.80;99.90;;;;;;4965721;28;20413;-83
2021/12/05 16:59:47;;;;;;;5.18;2.70;;;3.70;99.90;;;;;;4952503;28;20512;-83
2021/12/05 17:02:12;;;;;;;5.22;2.75;;;3.70;99.90;;;;;;4972170;28;20121;-83
2021/12/05 17:04:56;;;;;;;4.57;3.22;;;3.80;99.90;;;;;;4951292;28;20117;-83
2021/12/05 17:08:09;;;;;;;5.75;3.08;;;3.80;99.90;;;;;;4944444;28;20744;-83
2021/12/05 17:10:50;;;;;;;6.32;3.95;;;3.80;99.90;;;;;;4968221;28;20109;-83
2021/12/05 17:13:15;;;;;;;10.68;5.63;;;3.80;99.90;;;;;;4968380;28;20038;-83
2021/12/05 17:16:04;;;;;;;12.43;6.90;;;3.80;99.90;;;;;;4966360;28;20161;-83
2021/12/05 17:18:37;;;;;;;11.80;6.70;;;3.80;99.90;;;;;;4952076;28;20098;-83
2021/12/05 17:21:12;;;;;;;11.25;5.68;;;3.70;99.90;;;;;;4966646;28;20045;-83
2021/12/05 17:23:43;;;;;;;13.63;6.90;;;3.80;99.90;;;;;;4954641;28;20522;-83
2021/12/05 17:26:13;;;;;;;12.48;7.13;;;3.80;99.90;;;;;;4951574;28;20676;-83
2021/12/05 17:29:06;;;;;;;17.80;8.20;;;3.80;99.90;;;;;;4971315;28;20026;-82
2021/12/05 17:31:40;;;;;;;22.98;8.35;;;3.70;99.90;;;;;;4966347;28;20039;-83
2021/12/05 17:34:09;;;;;;;12.73;7.88;;;3.70;99.90;;;;;;4954231;28;20029;-83
2021/12/05 17:36:39;;;;;;;13.45;6.13;;;3.70;99.90;;;;;;4970262;28;20031;-83
2021/12/05 17:39:17;;;;;;;10.45;5.68;;;3.60;99.90;;;;;;4957882;28;20480;-83
2021/12/05 17:41:44;;;;;;;;;;;3.60;99.90;;;;;;4948557;28;20447;-83
2021/12/05 17:44:12;;;;;;;11.55;6.40;;;3.60;99.90;;;;;;4960615;28;19993;-84
2021/12/05 17:46:39;;;;;;;12.63;6.75;;;3.50;99.90;;;;;;4952565;28;20042;-83
2021/12/05 17:49:09;;;;;;;11.25;6.32;;;3.50;99.90;;;;;;4957583;28;20598;-83
2021/12/05 17:51:38;;;;;;;8.15;5.32;;;3.40;99.90;;;;;;4955389;28;20524;-84
2021/12/05 17:54:06;;;;;;;9.07;5.50;;;3.40;99.90;;;;;;4952444;28;20031;-84
2021/12/05 17:56:48;;;;;;;10.50;5.85;;;3.40;99.90;;;;;;4952063;28;20030;-83
2021/12/05 17:59:28;;;;;;;9.43;5.82;;;3.40;99.90;;;;;;4953068;28;20091;-86
2021/12/05 18:04:44;;;;;;;8.30;6.38;;;3.40;99.90;;;;;;4974503;28;20388;-87
2021/12/05 18:07:10;;;;;;;9.43;6.20;;;3.40;99.90;;;;;;4966036;28;20030;-87
2021/12/05 18:09:36;;;;;;;10.20;5.13;;;3.30;99.90;;;;;;4971859;28;20062;-86
2021/12/05 18:12:03;;;;;;;12.15;5.60;;;3.20;99.90;;;;;;4979236;28;20094;-85
2021/12/05 18:14:29;;;;;;;6.63;4.55;;;3.30;99.90;;;;;;4957473;28;20539;-83
2021/12/05 18:16:54;;;;;;;6.90;4.60;;;3.30;99.90;;;;;;4962725;28;20058;-83
2021/12/05 18:19:20;;;;;;;7.00;4.90;;;3.20;99.90;;;;;;4977985;28;20023;-83
2021/12/05 18:21:49;;;;;;;7.82;6.25;;;3.20;99.90;;;;;;4949202;28;20037;-83
2021/12/05 18:24:16;;;;;;;;;;;3.10;99.90;;;;;;4951039;28;20387;-83
2021/12/05 18:26:44;;;;;;;10.20;6.15;;;3.10;99.90;;;;;;4962945;28;19918;-83
2021/12/05 18:29:12;;;;;;;15.63;7.55;;;3.20;99.90;;;;;;4951385;28;20026;-83
2021/12/05 18:31:38;;;;;;;9.52;5.78;;;3.10;99.90;;;;;;4955671;28;20125;-82
2021/12/05 18:34:18;;;;;;;8.23;6.20;;;3.10;99.90;;;;;;4968704;28;20414;-83
2021/12/05 18:36:44;;;;;;;9.77;5.35;;;3.10;99.90;;;;;;4951942;28;20041;-83
2021/12/05 18:39:13;;;;;;;8.68;5.22;;;3.10;99.90;;;;;;4952090;28;20031;-83
2021/12/05 18:41:40;;;;;;;9.52;5.88;;;3.10;99.90;;;;;;4975856;28;20046;-83
2021/12/05 18:44:14;;;;;;;8.35;5.70;;;3.10;99.90;;;;;;4952285;28;20058;-84
2021/12/05 18:46:41;;;;;;;13.52;7.80;;;3.10;99.90;;;;;;4955078;28;20073;-84
2021/12/05 18:49:07;;;;;;;15.50;7.55;;;3.00;99.90;;;;;;4957010;28;20030;-83
2021/12/05 18:51:33;;;;;;;12.65;6.57;;;3.00;99.90;;;;;;4955148;28;20038;-84
2021/12/05 18:53:59;;;;;;;16.67;10.13;;;3.00;99.90;;;;;;4969682;28;20031;-84
2021/12/05 18:56:27;;;;;;;14.70;11.00;;;3.00;99.90;;;;;;4965927;28;20042;-84
2021/12/05 18:58:54;;;;;;;117.33;38.77;;;3.00;99.90;;;;;;4956246;28;21069;-84
2021/12/05 19:06:51;;;;;;;13.35;9.55;;;2.90;99.90;;;;;;4970968;28;20034;-84